createdAt,value
2023-05-14T00:01:25.422Z,19.73
2023-05-14T00:03:52.088Z,16.60
2023-05-14T00:06:18.605Z,16.52
2023-05-14T00:08:45.245Z,22.58
2023-05-14T00:11:11.911Z,17.60
2023-05-14T00:13:38.511Z,17.83
2023-05-14T00:16:05.484Z,17.58
2023-05-14T00:18:32.185Z,16.38
2023-05-14T00:20:58.599Z,15.75
2023-05-14T00:23:25.171Z,16.60
2023-05-14T00:25:51.649Z,24.17
2023-05-14T00:28:18.076Z,18.40
2023-05-14T00:30:44.771Z,23.10
2023-05-14T00:33:11.333Z,16.85
2023-05-14T00:35:37.884Z,17.40
2023-05-14T00:38:04.529Z,16.63
2023-05-14T00:40:31.287Z,16.05
2023-05-14T00:42:57.846Z,19.75
2023-05-14T00:45:24.598Z,15.45
2023-05-14T00:47:51.723Z,16.33
2023-05-14T00:50:18.551Z,16.85
2023-05-14T00:52:45.173Z,17.27
2023-05-14T00:55:16.351Z,16.77
2023-05-14T00:57:43.387Z,16.95
2023-05-14T01:00:10.623Z,14.93
2023-05-14T01:02:37.085Z,14.63
2023-05-14T01:05:04.190Z,16.08
2023-05-14T01:07:45.627Z,19.83
2023-05-14T01:13:12.688Z,13.45
2023-05-14T01:15:41.789Z,16.83
2023-05-14T01:18:13.663Z,15.23
2023-05-14T01:20:40.223Z,13.40
2023-05-14T01:23:07.919Z,18.35
2023-05-14T01:25:35.310Z,16.60
2023-05-14T01:28:23.690Z,17.13
2023-05-14T01:30:53.965Z,19.73
2023-05-14T01:33:22.304Z,13.93
2023-05-14T01:35:49.645Z,16.27
2023-05-14T01:38:18.920Z,16.90
2023-05-14T01:40:46.938Z,15.68
2023-05-14T01:43:15.093Z,16.75
2023-05-14T01:45:42.541Z,17.98
2023-05-14T01:48:09.291Z,16.95
2023-05-14T01:50:35.852Z,22.63
2023-05-14T01:53:02.987Z,20.30
2023-05-14T01:55:29.549Z,22.27
2023-05-14T01:57:56.262Z,19.42
2023-05-14T02:00:25.309Z,20.65
2023-05-14T02:02:52.068Z,15.52
2023-05-14T02:05:18.838Z,19.05
2023-05-14T02:07:45.476Z,15.65
2023-05-14T02:10:11.928Z,18.88
2023-05-14T02:12:38.388Z,16.75
2023-05-14T02:15:05.607Z,19.45
2023-05-14T02:17:32.274Z,17.52
2023-05-14T02:19:58.845Z,21.25
2023-05-14T02:22:25.466Z,20.15
2023-05-14T02:24:52.454Z,18.33
2023-05-14T02:27:18.956Z,15.65
2023-05-14T02:29:45.447Z,14.10
2023-05-14T02:32:11.901Z,18.10
2023-05-14T02:34:39.185Z,15.23
2023-05-14T02:37:05.934Z,23.33
2023-05-14T02:39:32.528Z,21.92
2023-05-14T02:41:59.081Z,16.25
2023-05-14T02:44:25.561Z,16.42
2023-05-14T02:46:52.044Z,16.10
2023-05-14T02:49:18.494Z,20.38
2023-05-14T02:51:44.986Z,18.08
2023-05-14T02:54:16.416Z,19.15
2023-05-14T02:56:43.163Z,15.38
2023-05-14T02:59:09.641Z,14.70
2023-05-14T03:01:36.729Z,17.10
2023-05-14T03:04:03.705Z,18.33
2023-05-14T03:06:31.126Z,20.30
2023-05-14T03:08:57.628Z,15.27
2023-05-14T03:11:24.134Z,13.43
2023-05-14T03:13:50.602Z,21.20
2023-05-14T03:16:17.078Z,23.17
2023-05-14T03:18:43.602Z,16.38
2023-05-14T03:21:10.402Z,17.63
2023-05-14T03:23:36.904Z,16.23
2023-05-14T03:26:04.812Z,16.58
2023-05-14T03:28:31.275Z,17.80
2023-05-14T03:30:59.924Z,17.40
2023-05-14T03:33:26.605Z,18.05
2023-05-14T03:35:53.068Z,19.35
2023-05-14T03:38:20.997Z,17.67
2023-05-14T03:40:47.709Z,18.48
2023-05-14T03:43:14.314Z,17.65
2023-05-14T03:45:41.338Z,17.65
2023-05-14T03:48:08.088Z,19.52
2023-05-14T03:50:35.306Z,16.73
2023-05-14T03:53:01.851Z,17.35
2023-05-14T03:55:29.966Z,15.07
2023-05-14T03:57:56.511Z,20.50
2023-05-14T04:00:23.497Z,16.10
2023-05-14T04:02:52.150Z,17.27
2023-05-14T04:05:18.678Z,19.77
2023-05-14T04:07:46.166Z,13.38
2023-05-14T04:10:13.494Z,17.95
2023-05-14T04:12:40.021Z,14.23
2023-05-14T04:15:07.377Z,20.52
2023-05-14T04:17:35.058Z,16.95
2023-05-14T04:20:01.670Z,17.27
2023-05-14T04:22:28.113Z,18.38
2023-05-14T04:24:54.592Z,14.27
2023-05-14T04:27:21.590Z,19.02
2023-05-14T04:29:49.244Z,15.90
2023-05-14T04:32:16.068Z,13.68
2023-05-14T04:34:42.556Z,17.10
2023-05-14T04:37:09.242Z,16.33
2023-05-14T04:39:35.906Z,18.27
2023-05-14T04:42:02.414Z,13.90
2023-05-14T04:44:28.915Z,12.80
2023-05-14T04:46:55.582Z,13.27
2023-05-14T04:49:22.281Z,16.08
2023-05-14T04:51:49.324Z,14.48
2023-05-14T04:54:15.918Z,16.90
2023-05-14T04:56:42.417Z,13.90
2023-05-14T04:59:08.885Z,16.00
2023-05-14T05:01:35.505Z,12.13
2023-05-14T05:04:02.244Z,11.63
2023-05-14T05:06:28.684Z,14.75
2023-05-14T05:08:55.798Z,13.18
2023-05-14T05:11:22.290Z,12.88
2023-05-14T05:13:48.779Z,12.65
2023-05-14T05:16:15.592Z,11.95
2023-05-14T05:18:42.235Z,12.82
2023-05-14T05:21:08.753Z,11.18
2023-05-14T05:23:35.344Z,12.05
2023-05-14T05:26:01.892Z,13.15
2023-05-14T05:28:28.437Z,11.98
2023-05-14T05:30:55.176Z,10.30
2023-05-14T05:33:21.783Z,10.05
2023-05-14T05:35:49.856Z,13.13
2023-05-14T05:38:18.255Z,12.45
2023-05-14T05:40:44.795Z,12.70
2023-05-14T05:43:11.563Z,10.73
2023-05-14T05:45:38.033Z,12.10
2023-05-14T05:48:04.818Z,13.75
2023-05-14T05:50:32.159Z,9.85
2023-05-14T05:52:59.272Z,10.70
2023-05-14T05:55:25.917Z,9.38
2023-05-14T05:57:52.524Z,14.82
2023-05-14T06:00:19.445Z,10.35
2023-05-14T06:02:46.748Z,11.65
2023-05-14T06:05:13.387Z,13.18
2023-05-14T06:07:39.883Z,9.30
2023-05-14T06:10:06.997Z,9.82
2023-05-14T06:12:33.422Z,14.60
2023-05-14T06:14:59.901Z,11.52
2023-05-14T06:17:27.007Z,9.88
2023-05-14T06:19:53.477Z,10.90
2023-05-14T06:22:20.037Z,11.48
2023-05-14T06:24:46.546Z,16.20
2023-05-14T06:27:13.068Z,13.10
2023-05-14T06:29:39.511Z,13.80
2023-05-14T06:32:06.557Z,11.75
2023-05-14T06:34:33.151Z,11.00
2023-05-14T06:37:00.279Z,10.52
2023-05-14T06:39:26.749Z,11.73
2023-05-14T06:41:53.267Z,9.68
2023-05-14T06:44:22.009Z,9.27
2023-05-14T06:46:48.524Z,10.10
2023-05-14T06:49:15.113Z,8.60
2023-05-14T06:51:41.846Z,9.65
2023-05-14T06:54:08.641Z,9.30
2023-05-14T06:56:35.075Z,10.55
2023-05-14T06:59:01.612Z,10.65
2023-05-14T07:01:28.264Z,12.63
2023-05-14T07:03:54.804Z,14.27
2023-05-14T07:06:21.313Z,13.73
2023-05-14T07:08:48.027Z,11.23
2023-05-14T07:11:14.688Z,12.80
2023-05-14T07:13:41.768Z,11.25
2023-05-14T07:16:11.438Z,9.88
2023-05-14T07:18:38.200Z,10.70
2023-05-14T07:21:06.323Z,8.68
2023-05-14T07:23:38.690Z,9.73
2023-05-14T07:26:05.999Z,9.18
2023-05-14T07:28:32.744Z,10.98
2023-05-14T07:30:59.767Z,8.45
2023-05-14T07:33:26.676Z,8.65
2023-05-14T07:35:54.004Z,14.10
2023-05-14T07:38:21.109Z,8.13
2023-05-14T07:40:47.623Z,8.43
2023-05-14T07:43:14.079Z,12.68
2023-05-14T07:45:40.734Z,10.95
2023-05-14T07:48:07.366Z,12.88
2023-05-14T07:50:33.979Z,9.98
2023-05-14T07:53:00.530Z,10.63
2023-05-14T07:55:26.985Z,11.30
2023-05-14T07:57:53.466Z,11.90
2023-05-14T08:00:20.079Z,15.00
2023-05-14T08:02:47.112Z,12.45
2023-05-14T08:05:13.665Z,11.48
2023-05-14T08:07:40.221Z,9.25
2023-05-14T08:10:07.797Z,14.63
2023-05-14T08:12:34.346Z,10.38
2023-05-14T08:15:00.775Z,8.90
2023-05-14T08:17:27.315Z,11.50
2023-05-14T08:19:54.127Z,14.80
2023-05-14T08:22:20.670Z,11.20
2023-05-14T08:24:47.178Z,9.80
2023-05-14T08:27:13.664Z,10.43
2023-05-14T08:29:40.175Z,16.27
2023-05-14T08:32:15.916Z,11.07
2023-05-14T08:34:49.757Z,10.07
2023-05-14T08:37:16.157Z,13.20
2023-05-14T08:39:42.627Z,11.13
2023-05-14T08:42:12.569Z,10.43
2023-05-14T08:44:47.608Z,11.50
2023-05-14T08:47:16.204Z,9.45
2023-05-14T08:49:44.787Z,12.05
2023-05-14T08:52:11.847Z,8.52
2023-05-14T08:54:40.063Z,9.32
2023-05-14T08:57:09.670Z,15.50
2023-05-14T08:59:36.270Z,7.25
2023-05-14T09:02:04.964Z,12.43
2023-05-14T09:04:32.659Z,10.70
2023-05-14T09:07:01.651Z,10.45
2023-05-14T09:09:28.374Z,7.75
2023-05-14T09:11:54.846Z,9.00
2023-05-14T09:14:23.242Z,10.40
2023-05-14T09:16:51.209Z,7.18
2023-05-14T09:19:19.387Z,13.07
2023-05-14T09:21:47.415Z,10.95
2023-05-14T09:24:24.499Z,10.27
2023-05-14T09:26:53.458Z,8.15
2023-05-14T09:29:20.760Z,11.48
2023-05-14T09:31:50.818Z,9.05
2023-05-14T09:34:28.615Z,8.80
2023-05-14T09:37:02.621Z,7.88
2023-05-14T09:39:29.712Z,15.38
2023-05-14T09:41:56.732Z,7.63
2023-05-14T09:44:24.063Z,7.82
2023-05-14T09:46:51.143Z,13.02
2023-05-14T09:49:18.017Z,10.45
2023-05-14T09:51:44.669Z,10.82
2023-05-14T09:54:11.184Z,9.70
2023-05-14T09:56:39.447Z,10.60
2023-05-14T09:59:06.175Z,7.82
2023-05-14T10:01:33.312Z,9.57
2023-05-14T10:04:01.120Z,8.25
2023-05-14T10:06:30.621Z,9.45
2023-05-14T10:09:04.185Z,9.02
2023-05-14T10:11:33.562Z,12.27
2023-05-14T10:14:07.856Z,12.93
2023-05-14T10:16:37.937Z,6.68
2023-05-14T10:19:10.377Z,8.13
2023-05-14T10:21:38.613Z,8.45
2023-05-14T10:24:06.830Z,8.10
2023-05-14T10:26:38.971Z,8.82
2023-05-14T10:29:06.344Z,10.88
2023-05-14T10:31:55.727Z,9.48
2023-05-14T10:34:31.395Z,6.68
2023-05-14T10:37:02.090Z,6.22
2023-05-14T10:39:46.052Z,9.52
2023-05-14T10:42:24.716Z,10.38
2023-05-14T10:44:55.458Z,7.53
2023-05-14T10:47:22.455Z,8.73
2023-05-14T10:49:49.546Z,12.38
2023-05-14T10:52:19.245Z,8.45
2023-05-14T10:54:51.003Z,7.82
2023-05-14T10:57:19.674Z,7.30
2023-05-14T10:59:48.209Z,10.50
2023-05-14T11:02:29.118Z,6.18
2023-05-14T11:05:06.550Z,14.30
2023-05-14T11:07:35.942Z,7.97
2023-05-14T11:10:14.325Z,8.35
2023-05-14T11:12:43.140Z,5.85
2023-05-14T11:15:11.935Z,9.95
2023-05-14T11:17:40.552Z,6.93
2023-05-14T11:20:07.993Z,8.93
2023-05-14T11:22:35.395Z,6.93
2023-05-14T11:25:02.058Z,8.32
2023-05-14T11:27:29.473Z,9.05
2023-05-14T11:29:56.153Z,8.95
2023-05-14T11:32:22.638Z,5.22
2023-05-14T11:34:49.377Z,9.30
2023-05-14T11:37:16.749Z,9.10
2023-05-14T11:39:50.684Z,7.80
2023-05-14T11:42:18.758Z,8.05
2023-05-14T11:44:53.832Z,5.20
2023-05-14T11:47:21.822Z,6.90
2023-05-14T11:49:49.153Z,10.98
2023-05-14T11:52:19.358Z,6.70
2023-05-14T11:54:46.737Z,9.68
2023-05-14T11:57:16.175Z,6.32
2023-05-14T11:59:43.403Z,9.45
2023-05-14T12:02:15.300Z,7.40
2023-05-14T12:04:42.854Z,5.60
2023-05-14T12:07:11.283Z,6.05
2023-05-14T12:09:49.256Z,10.40
2023-05-14T12:12:18.447Z,13.98
2023-05-14T12:14:45.458Z,8.57
2023-05-14T12:17:17.846Z,9.52
2023-05-14T12:19:46.009Z,9.52
2023-05-14T12:22:15.582Z,9.90
2023-05-14T12:24:43.505Z,10.20
2023-05-14T12:27:10.805Z,9.13
2023-05-14T12:29:38.973Z,5.65
2023-05-14T12:32:09.728Z,9.82
2023-05-14T12:34:37.699Z,9.77
2023-05-14T12:37:05.287Z,8.25
2023-05-14T12:39:33.401Z,10.20
2023-05-14T12:41:59.850Z,10.63
2023-05-14T12:44:26.295Z,11.43
2023-05-14T12:46:52.829Z,10.45
2023-05-14T12:49:19.668Z,6.18
2023-05-14T12:51:46.929Z,7.32
2023-05-14T12:54:15.696Z,9.20
2023-05-14T12:56:42.508Z,14.43
2023-05-14T12:59:09.566Z,9.98
2023-05-14T13:01:37.700Z,10.02
2023-05-14T13:04:05.452Z,8.43
2023-05-14T13:06:32.559Z,7.07
2023-05-14T13:09:01.618Z,8.20
2023-05-14T13:11:30.275Z,8.63
2023-05-14T13:13:56.749Z,12.07
2023-05-14T13:16:23.321Z,9.35
2023-05-14T13:18:49.793Z,9.02
2023-05-14T13:21:16.281Z,14.40
2023-05-14T13:23:42.685Z,12.07
2023-05-14T13:26:09.716Z,8.63
2023-05-14T13:28:36.145Z,9.27
2023-05-14T13:31:08.525Z,10.85
2023-05-14T13:33:36.388Z,8.77
2023-05-14T13:36:03.497Z,10.18
2023-05-14T13:38:30.061Z,7.53
2023-05-14T13:41:01.688Z,5.72
2023-05-14T13:43:29.687Z,6.82
2023-05-14T13:45:56.527Z,5.85
2023-05-14T13:48:24.227Z,9.70
2023-05-14T13:50:51.891Z,9.52
2023-05-14T13:53:23.016Z,5.78
2023-05-14T13:55:50.771Z,11.23
2023-05-14T13:58:17.271Z,8.35
2023-05-14T14:00:43.748Z,7.97
2023-05-14T14:03:10.422Z,6.88
2023-05-14T14:05:37.201Z,8.63
2023-05-14T14:08:17.857Z,7.43
2023-05-14T14:10:49.749Z,7.95
2023-05-14T14:13:16.339Z,10.63
2023-05-14T14:15:43.695Z,5.50
2023-05-14T14:18:10.434Z,12.45
2023-05-14T14:20:36.907Z,6.80
2023-05-14T14:23:03.301Z,5.15
2023-05-14T14:25:29.787Z,6.55
2023-05-14T14:27:56.353Z,8.20
2023-05-14T14:30:22.819Z,9.60
2023-05-14T14:32:49.684Z,7.30
2023-05-14T14:35:18.129Z,6.97
2023-05-14T14:37:48.913Z,7.18
2023-05-14T14:40:16.885Z,5.43
2023-05-14T14:42:43.399Z,9.70
2023-05-14T14:45:10.285Z,8.05
2023-05-14T14:47:36.718Z,9.60
2023-05-14T14:50:03.462Z,6.35
2023-05-14T14:52:29.956Z,5.97
2023-05-14T14:54:56.504Z,5.93
2023-05-14T14:57:23.171Z,9.85
2023-05-14T14:59:49.662Z,8.38
2023-05-14T15:02:16.423Z,14.43
2023-05-14T15:04:42.955Z,9.00
2023-05-14T15:07:09.557Z,8.18
2023-05-14T15:09:36.124Z,7.05
2023-05-14T15:12:02.528Z,10.77
2023-05-14T15:14:29.052Z,8.63
2023-05-14T15:16:55.664Z,9.68
2023-05-14T15:19:23.359Z,8.40
2023-05-14T15:21:50.097Z,11.40
2023-05-14T15:24:16.553Z,8.50
2023-05-14T15:26:42.986Z,8.48
2023-05-14T15:29:09.499Z,12.32
2023-05-14T15:31:35.963Z,7.95
2023-05-14T15:34:03.578Z,7.88
2023-05-14T15:36:30.101Z,7.28
2023-05-14T15:38:56.553Z,5.93
2023-05-14T15:41:23.051Z,7.90
2023-05-14T15:43:49.516Z,6.18
2023-05-14T15:46:16.043Z,20.30
2023-05-14T15:48:42.609Z,9.15
2023-05-14T15:51:09.056Z,7.82
2023-05-14T15:53:35.602Z,6.88
2023-05-14T15:56:02.793Z,8.85
2023-05-14T15:58:29.279Z,7.05
2023-05-14T16:00:56.013Z,12.52
2023-05-14T16:03:22.600Z,8.75
2023-05-14T16:05:49.264Z,10.00
2023-05-14T16:08:15.756Z,12.95
2023-05-14T16:10:42.164Z,12.30
2023-05-14T16:13:08.729Z,7.95
2023-05-14T16:15:35.208Z,6.78
2023-05-14T16:18:01.850Z,7.03
2023-05-14T16:20:28.420Z,7.80
2023-05-14T16:22:54.919Z,10.95
2023-05-14T16:25:21.396Z,10.57
2023-05-14T16:27:47.850Z,10.38
2023-05-14T16:30:14.306Z,7.70
2023-05-14T16:32:42.062Z,10.05
2023-05-14T16:35:09.879Z,6.13
2023-05-14T16:37:36.375Z,7.45
2023-05-14T16:40:03.099Z,10.02
2023-05-14T16:42:29.575Z,7.05
2023-05-14T16:44:56.008Z,10.60
2023-05-14T16:47:22.457Z,10.45
2023-05-14T16:49:49.003Z,7.90
2023-05-14T16:52:15.524Z,6.70
2023-05-14T16:54:41.966Z,7.95
2023-05-14T16:57:08.488Z,12.07
2023-05-14T16:59:34.917Z,7.90
2023-05-14T17:02:01.475Z,7.88
2023-05-14T17:04:27.991Z,8.35
2023-05-14T17:06:55.228Z,6.93
2023-05-14T17:09:21.712Z,12.60
2023-05-14T17:11:48.213Z,13.85
2023-05-14T17:14:14.888Z,11.55
2023-05-14T17:16:42.325Z,11.20
2023-05-14T17:19:08.828Z,9.82
2023-05-14T17:21:35.449Z,8.38
2023-05-14T17:24:01.867Z,12.38
2023-05-14T17:26:30.336Z,10.32
2023-05-14T17:28:56.807Z,10.63
2023-05-14T17:31:23.672Z,11.80
2023-05-14T17:33:50.232Z,21.58
2023-05-14T17:36:16.674Z,12.13
2023-05-14T17:38:43.168Z,17.13
2023-05-14T17:41:09.796Z,10.15
2023-05-14T17:43:36.204Z,10.07
2023-05-14T17:46:03.447Z,16.33
2023-05-14T17:48:29.996Z,12.63
2023-05-14T17:50:56.486Z,9.52
2023-05-14T17:53:22.996Z,11.55
2023-05-14T17:55:50.077Z,10.00
2023-05-14T17:58:16.576Z,10.05
2023-05-14T18:00:43.716Z,13.13
2023-05-14T18:03:11.957Z,10.25
2023-05-14T18:05:38.629Z,13.77
2023-05-14T18:08:05.405Z,11.90
2023-05-14T18:10:31.943Z,10.32
2023-05-14T18:12:58.773Z,14.38
2023-05-14T18:15:27.246Z,11.75
2023-05-14T18:17:54.135Z,12.35
2023-05-14T18:20:20.679Z,18.38
2023-05-14T18:22:47.135Z,10.02
2023-05-14T18:25:13.839Z,10.10
2023-05-14T18:27:44.304Z,11.10
2023-05-14T18:30:15.645Z,10.57
2023-05-14T18:32:44.610Z,16.90
2023-05-14T18:35:12.267Z,9.57
2023-05-14T18:37:38.809Z,15.38
2023-05-14T18:40:06.914Z,12.40
2023-05-14T18:42:33.863Z,9.98
2023-05-14T18:45:00.426Z,8.77
2023-05-14T18:47:27.019Z,13.00
2023-05-14T18:49:55.756Z,9.57
2023-05-14T18:52:22.859Z,15.10
2023-05-14T18:54:50.780Z,9.60
2023-05-14T18:57:17.316Z,10.80
2023-05-14T18:59:43.808Z,7.18
2023-05-14T19:02:10.345Z,9.88
2023-05-14T19:04:50.780Z,10.70
2023-05-14T19:07:18.211Z,11.70
2023-05-14T19:09:44.693Z,14.05
2023-05-14T19:12:11.283Z,12.02
2023-05-14T19:14:37.726Z,9.27
2023-05-14T19:17:04.840Z,7.32
2023-05-14T19:19:31.615Z,12.52
2023-05-14T19:21:58.016Z,10.73
2023-05-14T19:24:24.772Z,13.55
2023-05-14T19:26:51.347Z,10.82
2023-05-14T19:29:17.816Z,14.23
2023-05-14T19:31:44.735Z,14.25
2023-05-14T19:34:11.262Z,14.07
2023-05-14T19:36:37.800Z,11.25
2023-05-14T19:39:04.384Z,14.48
2023-05-14T19:41:30.971Z,12.82
2023-05-14T19:43:57.510Z,7.88
2023-05-14T19:46:24.164Z,10.35
2023-05-14T19:48:50.608Z,12.93
2023-05-14T19:51:17.020Z,10.07
2023-05-14T19:53:43.557Z,11.73
2023-05-14T19:56:10.057Z,7.60
2023-05-14T19:58:36.564Z,12.88
2023-05-14T20:01:03.123Z,12.90
2023-05-14T20:03:29.785Z,8.02
2023-05-14T20:05:56.390Z,7.25
2023-05-14T20:08:22.844Z,14.75
2023-05-14T20:10:49.461Z,9.15
2023-05-14T20:13:16.127Z,10.57
2023-05-14T20:15:45.385Z,9.57
2023-05-14T20:18:12.110Z,12.88
2023-05-14T20:20:39.839Z,9.65
2023-05-14T20:23:06.341Z,8.40
2023-05-14T20:25:33.261Z,9.73
2023-05-14T20:28:02.473Z,13.02
2023-05-14T20:30:28.926Z,10.52
2023-05-14T20:32:55.783Z,17.10
2023-05-14T20:35:22.562Z,8.57
2023-05-14T20:37:49.500Z,10.93
2023-05-14T20:40:16.042Z,22.30
2023-05-14T20:42:42.561Z,14.93
2023-05-14T20:45:09.584Z,12.77
2023-05-14T20:47:36.402Z,12.23
2023-05-14T20:50:03.225Z,9.88
2023-05-14T20:52:29.741Z,14.68
2023-05-14T20:54:56.206Z,9.65
2023-05-14T20:57:22.791Z,14.27
2023-05-14T20:59:49.293Z,8.95
2023-05-14T21:02:15.974Z,9.27
2023-05-14T21:04:42.816Z,10.93
2023-05-14T21:07:09.391Z,8.98
2023-05-14T21:09:35.811Z,10.35
2023-05-14T21:12:02.291Z,10.18
2023-05-14T21:14:28.792Z,19.98
2023-05-14T21:16:55.333Z,8.23
2023-05-14T21:19:22.721Z,10.00
2023-05-14T21:21:49.295Z,10.77
2023-05-14T21:24:16.716Z,11.77
2023-05-14T21:26:43.325Z,11.82
2023-05-14T21:29:09.940Z,8.15
2023-05-14T21:31:36.524Z,9.98
2023-05-14T21:34:03.006Z,10.10
2023-05-14T21:36:29.460Z,8.75
2023-05-14T21:38:55.917Z,9.15
2023-05-14T21:41:22.400Z,9.38
2023-05-14T21:43:48.889Z,10.43
2023-05-14T21:46:16.235Z,10.40
2023-05-14T21:48:42.768Z,11.52
2023-05-14T21:51:09.246Z,11.93
2023-05-14T21:53:35.761Z,10.05
2023-05-14T21:56:02.272Z,8.75
2023-05-14T21:58:28.706Z,8.50
2023-05-14T22:00:55.160Z,9.05
2023-05-14T22:03:21.639Z,11.50
2023-05-14T22:05:49.131Z,11.80
2023-05-14T22:08:17.481Z,9.95
2023-05-14T22:10:44.340Z,9.75
2023-05-14T22:13:10.979Z,12.68
2023-05-14T22:15:37.938Z,9.35
2023-05-14T22:18:04.775Z,10.48
2023-05-14T22:20:31.276Z,12.32
2023-05-14T22:22:57.775Z,14.40
2023-05-14T22:25:24.501Z,11.57
2023-05-14T22:27:51.243Z,10.45
2023-05-14T22:30:17.724Z,11.32
2023-05-14T22:32:44.299Z,14.05
2023-05-14T22:35:11.218Z,11.23
2023-05-14T22:37:37.755Z,13.60
2023-05-14T22:40:05.224Z,16.10
2023-05-14T22:42:31.691Z,11.55
2023-05-14T22:44:58.131Z,15.15
2023-05-14T22:47:25.742Z,16.17
2023-05-14T22:49:52.633Z,12.05
2023-05-14T22:52:19.101Z,11.90
2023-05-14T22:54:46.521Z,12.52
2023-05-14T22:57:13.055Z,13.75
2023-05-14T22:59:39.536Z,11.75
2023-05-14T23:02:06.767Z,14.50
2023-05-14T23:04:33.428Z,14.40
2023-05-14T23:06:59.899Z,16.30
2023-05-14T23:09:26.383Z,13.68
2023-05-14T23:11:52.904Z,14.07
2023-05-14T23:14:19.555Z,11.73
2023-05-14T23:16:46.067Z,12.95
2023-05-14T23:19:12.684Z,16.92
2023-05-14T23:21:39.329Z,13.05
2023-05-14T23:24:06.221Z,15.85
2023-05-14T23:26:32.884Z,10.95
2023-05-14T23:28:59.287Z,13.13
2023-05-14T23:31:25.862Z,11.27
2023-05-14T23:33:52.299Z,12.73
2023-05-14T23:36:18.928Z,19.52
2023-05-14T23:38:45.726Z,19.17
2023-05-14T23:41:12.326Z,13.95
2023-05-14T23:43:38.811Z,13.40
2023-05-14T23:46:05.599Z,15.63
2023-05-14T23:48:32.577Z,13.10
2023-05-14T23:50:59.086Z,15.00
2023-05-14T23:53:25.746Z,15.57
2023-05-14T23:55:52.352Z,14.30
2023-05-14T23:58:18.979Z,14.27
